Time,TemperatureF,DewpointF,PressureIn,WindDirection,WindDirectionDegrees,WindSpeedMPH,WindSpeedGustMPH,Humidity,HourlyPrecipIn,Conditions,Clouds,dailyrainin,SolarRadiationWatts/m^2,SoftwareType,DateUTC
2013-03-24 00:03:00,51.6,48.2,29.88,NNW,338,4.6,4.6,88,0.00,RA,,0.00,0.0,WeatherDisplay:10.37,2013-03-24 05:03:00,
2013-03-24 00:09:00,51.6,48.2,29.85,NNW,338,4.6,4.6,88,0.00,RA,,0.00,0.0,WeatherDisplay:10.37,2013-03-24 05:09:00,
2013-03-24 00:14:00,51.4,48.0,29.85,NW,315,11.8,11.8,88,0.00,CLR,,0.00,0.0,WeatherDisplay:10.37,2013-03-24 05:14:00,
2013-03-24 00:19:00,51.4,48.3,29.85,NW,315,11.5,11.5,89,0.00,CLR,,0.00,0.0,WeatherDisplay:10.37,2013-03-24 05:19:00,
2013-03-24 00:24:00,51.4,48.3,29.85,NW,315,8.1,8.1,89,0.00,CLR,,0.00,0.0,WeatherDisplay:10.37,2013-03-24 05:24:00,
2013-03-24 00:29:00,51.3,47.8,29.87,NNW,338,10.4,10.4,88,0.00,CLR,,0.00,10.0,WeatherDisplay:10.37,2013-03-24 05:29:00,
2013-03-24 00:34:00,50.7,47.0,29.87,North,0,10.4,10.4,87,0.00,CLR,,0.00,10.0,WeatherDisplay:10.37,2013-03-24 05:34:00,
2013-03-24 00:39:00,50.5,46.8,29.87,NW,315,8.1,8.1,87,0.00,CLR,,0.00,10.0,WeatherDisplay:10.37,2013-03-24 05:39:00,
2013-03-24 00:44:00,50.5,46.5,29.87,NW,315,2.3,5.5,86,0.00,CLR,,0.00,0.0,WeatherDisplay:10.37,2013-03-24 05:44:00,
2013-03-24 00:49:00,50.5,46.5,29.87,NW,315,6.9,6.9,86,0.00,CLR,,0.00,0.0,WeatherDisplay:10.37,2013-03-24 05:49:00,
2013-03-24 00:54:00,50.2,46.2,29.87,NW,315,7.8,7.8,86,0.00,CLR,,0.00,0.0,WeatherDisplay:10.37,2013-03-24 05:54:00,
2013-03-24 01:00:00,50.2,46.2,29.87,NW,315,6.2,6.2,86,0.00,CLR,,0.00,0.0,WeatherDisplay:10.37,2013-03-24 06:00:00,
2013-03-24 01:05:00,50.0,46.0,29.87,NW,315,4.6,4.7,86,0.00,CLR,,0.00,10.0,WeatherDisplay:10.37,2013-03-24 06:05:00,
2013-03-24 01:10:00,50.0,46.0,29.90,NW,315,5.8,5.8,86,0.00,CLR,,0.00,10.0,WeatherDisplay:10.37,2013-03-24 06:10:00,
2013-03-24 01:15:00,49.8,45.5,29.90,West,270,9.2,9.2,85,0.00,CLR,,0.00,10.0,WeatherDisplay:10.37,2013-03-24 06:15:00,
2013-03-24 01:20:00,49.8,45.5,29.90,NW,315,13.0,13.0,85,0.00,CLR,,0.00,10.0,WeatherDisplay:10.37,2013-03-24 06:20:00,
2013-03-24 01:25:00,49.3,44.6,29.90,NNW,338,8.1,8.1,84,0.00,CLR,,0.00,10.0,WeatherDisplay:10.37,2013-03-24 06:25:00,
2013-03-24 01:30:00,49.1,44.2,29.91,NW,315,12.7,12.7,83,0.00,CLR,,0.00,10.0,WeatherDisplay:10.37,2013-03-24 06:30:00,
2013-03-24 01:35:00,48.7,43.8,29.91,NW,315,9.2,9.2,83,0.00,CLR,,0.00,10.0,WeatherDisplay:10.37,2013-03-24 06:35:00,
2013-03-24 01:41:00,48.7,43.8,29.91,WNW,292,11.5,11.5,83,0.00,CLR,,0.00,0.0,WeatherDisplay:10.37,2013-03-24 06:41:00,
2013-03-24 01:46:00,48.2,43.3,29.91,SW,225,6.9,6.9,83,0.00,CLR,,0.00,0.0,WeatherDisplay:10.37,2013-03-24 06:46:00,
2013-03-24 01:52:00,48.2,43.3,29.91,NNE,22,5.8,5.8,83,0.03,RA,,0.03,0.0,WeatherDisplay:10.37,2013-03-24 06:52:00,
2013-03-24 01:57:00,48.0,42.8,29.91,NW,315,9.2,9.2,82,0.03,RA,,0.03,0.0,WeatherDisplay:10.37,2013-03-24 06:57:00,
2013-03-24 02:02:00,47.8,42.3,29.91,West,270,18.4,18.4,81,0.03,,,0.03,0.0,WeatherDisplay:10.37,2013-03-24 07:02:00,
2013-03-24 02:07:00,47.3,41.1,29.91,WNW,292,17.3,17.3,79,0.03,CLR,,0.03,10.0,WeatherDisplay:10.37,2013-03-24 07:07:00,
2013-03-24 02:12:00,46.9,40.8,29.91,NW,315,11.5,11.5,79,0.03,CLR,,0.03,10.0,WeatherDisplay:10.37,2013-03-24 07:12:00,
2013-03-24 02:17:00,46.9,41.1,29.91,NW,315,12.0,12.0,80,0.03,CLR,,0.03,0.0,WeatherDisplay:10.37,2013-03-24 07:17:00,
2013-03-24 02:22:00,46.4,40.6,29.91,NNW,338,6.9,6.9,80,0.03,CLR,,0.03,0.0,WeatherDisplay:10.37,2013-03-24 07:22:00,
2013-03-24 02:28:00,46.4,40.9,29.91,WNW,292,6.9,6.9,81,0.03,CLR,,0.03,0.0,WeatherDisplay:10.37,2013-03-24 07:28:00,
2013-03-24 02:33:00,46.4,40.6,29.92,North,0,12.7,12.7,80,0.03,CLR,,0.03,0.0,WeatherDisplay:10.37,2013-03-24 07:33:00,
2013-03-24 02:38:00,46.0,40.2,29.92,NW,315,8.1,8.1,80,0.03,CLR,,0.03,0.0,WeatherDisplay:10.37,2013-03-24 07:38:00,
2013-03-24 02:43:00,45.9,40.0,29.92,WNW,292,11.5,11.5,80,0.03,CLR,,0.03,0.0,WeatherDisplay:10.37,2013-03-24 07:43:00,
2013-03-24 02:49:00,45.7,39.5,29.93,NW,315,13.8,13.8,79,0.03,CLR,,0.03,0.0,WeatherDisplay:10.37,2013-03-24 07:49:00,
2013-03-24 02:54:00,45.5,39.0,29.93,WNW,292,8.1,8.4,78,0.00,CLR,,0.03,0.0,WeatherDisplay:10.37,2013-03-24 07:54:00,
2013-03-24 02:59:00,45.5,39.0,29.93,NNW,338,11.5,11.5,78,0.00,CLR,,0.03,0.0,WeatherDisplay:10.37,2013-03-24 07:59:00,
2013-03-24 03:04:00,45.5,39.0,29.93,NW,315,9.2,9.2,78,0.00,CLR,,0.03,0.0,WeatherDisplay:10.37,2013-03-24 08:04:00,
2013-03-24 03:09:00,45.5,39.0,29.94,NW,315,9.2,9.2,78,0.00,CLR,,0.03,0.0,WeatherDisplay:10.37,2013-03-24 08:09:00,
2013-03-24 03:14:00,45.0,37.8,29.94,West,270,11.5,11.5,76,0.00,CLR,,0.03,0.0,WeatherDisplay:10.37,2013-03-24 08:14:00,
2013-03-24 03:20:00,44.8,37.3,29.94,NNW,338,10.4,10.4,75,0.00,CLR,,0.03,0.0,WeatherDisplay:10.37,2013-03-24 08:20:00,
2013-03-24 03:25:00,44.8,37.3,29.94,NW,315,20.7,20.7,75,0.00,CLR,,0.03,0.0,WeatherDisplay:10.37,2013-03-24 08:25:00,
2013-03-24 03:30:00,44.8,37.3,29.94,NW,315,10.4,10.4,75,0.00,CLR,,0.03,0.0,WeatherDisplay:10.37,2013-03-24 08:30:00,
2013-03-24 03:35:00,44.8,37.3,29.94,WNW,292,11.5,11.5,75,0.00,CLR,,0.03,0.0,WeatherDisplay:10.37,2013-03-24 08:35:00,
2013-03-24 03:40:00,44.4,36.6,29.94,WNW,292,9.2,9.3,74,0.00,CLR,,0.03,0.0,WeatherDisplay:10.37,2013-03-24 08:40:00,
2013-03-24 03:46:00,44.2,36.8,29.94,NW,315,12.7,12.7,75,0.00,CLR,,0.03,0.0,WeatherDisplay:10.37,2013-03-24 08:46:00,
2013-03-24 03:51:00,44.4,37.0,29.95,NW,315,11.5,11.5,75,0.00,CLR,,0.03,0.0,WeatherDisplay:10.37,2013-03-24 08:51:00,
2013-03-24 03:56:00,44.1,36.6,29.95,NW,315,9.2,9.2,75,0.00,CLR,,0.03,0.0,WeatherDisplay:10.37,2013-03-24 08:56:00,
2013-03-24 04:01:00,44.1,36.6,29.95,West,270,10.4,10.4,75,0.00,CLR,,0.03,0.0,WeatherDisplay:10.37,2013-03-24 09:01:00,
2013-03-24 04:07:00,44.1,36.3,29.95,NW,315,15.0,15.0,74,0.00,CLR,,0.03,0.0,WeatherDisplay:10.37,2013-03-24 09:07:00,
2013-03-24 04:12:00,43.7,36.0,29.97,NNW,338,8.1,8.1,74,0.00,CLR,,0.03,0.0,WeatherDisplay:10.37,2013-03-24 09:12:00,
2013-03-24 04:17:00,43.7,35.6,29.97,WNW,292,11.5,11.5,73,0.00,CLR,,0.03,0.0,WeatherDisplay:10.37,2013-03-24 09:17:00,
2013-03-24 04:22:00,43.3,35.3,29.97,NW,315,15.9,15.9,73,0.00,CLR,,0.03,0.0,WeatherDisplay:10.37,2013-03-24 09:22:00,
2013-03-24 04:28:00,43.0,34.6,29.97,ENE,68,11.5,11.5,72,0.00,CLR,,0.03,0.0,WeatherDisplay:10.37,2013-03-24 09:28:00,
2013-03-24 04:33:00,42.8,34.7,29.97,NW,315,12.7,12.7,73,0.00,CLR,,0.03,0.0,WeatherDisplay:10.37,2013-03-24 09:33:00,
2013-03-24 04:38:00,42.6,34.6,29.97,NW,315,8.1,8.3,73,0.00,CLR,,0.03,0.0,WeatherDisplay:10.37,2013-03-24 09:38:00,
2013-03-24 04:43:00,42.4,34.0,29.97,NW,315,9.2,9.2,72,0.00,CLR,,0.03,0.0,WeatherDisplay:10.37,2013-03-24 09:43:00,
2013-03-24 04:48:00,42.3,33.9,29.97,NW,315,16.1,16.1,72,0.00,CLR,,0.03,0.0,WeatherDisplay:10.37,2013-03-24 09:48:00,
2013-03-24 04:53:00,42.1,33.4,29.99,NW,315,20.7,20.7,71,0.00,CLR,,0.03,0.0,WeatherDisplay:10.37,2013-03-24 09:53:00,
2013-03-24 04:58:00,41.9,33.5,29.99,NW,315,12.7,12.7,72,0.00,CLR,,0.03,0.0,WeatherDisplay:10.37,2013-03-24 09:58:00,
2013-03-24 05:04:00,41.9,33.5,29.99,NW,315,10.4,10.4,72,0.00,CLR,,0.03,0.0,WeatherDisplay:10.37,2013-03-24 10:04:00,
2013-03-24 05:09:00,41.7,33.0,29.99,NW,315,18.4,18.4,71,0.00,CLR,,0.03,0.0,WeatherDisplay:10.37,2013-03-24 10:09:00,
2013-03-24 05:14:00,41.5,33.2,29.99,WSW,248,10.4,10.4,72,0.00,CLR,,0.03,0.0,WeatherDisplay:10.37,2013-03-24 10:14:00,
2013-03-24 05:19:00,41.4,32.7,29.99,NW,315,16.1,16.1,71,0.00,CLR,,0.03,0.0,WeatherDisplay:10.37,2013-03-24 10:19:00,
2013-03-24 05:24:00,41.4,33.0,29.99,NW,315,10.4,10.4,72,0.00,CLR,,0.03,0.0,WeatherDisplay:10.37,2013-03-24 10:24:00,
2013-03-24 05:30:00,41.2,32.5,30.00,North,0,10.4,10.4,71,0.00,CLR,,0.03,0.0,WeatherDisplay:10.37,2013-03-24 10:30:00,
2013-03-24 05:35:00,41.2,32.5,30.00,NW,315,16.1,16.1,71,0.00,CLR,,0.03,0.0,WeatherDisplay:10.37,2013-03-24 10:35:00,
2013-03-24 05:40:00,40.8,32.5,30.00,SW,225,11.5,11.5,72,0.00,CLR,,0.03,0.0,WeatherDisplay:10.37,2013-03-24 10:40:00,
2013-03-24 05:45:00,40.6,32.3,30.00,WNW,292,10.4,10.4,72,0.00,CLR,,0.03,0.0,WeatherDisplay:10.37,2013-03-24 10:45:00,
2013-03-24 05:51:00,40.6,32.3,30.01,WNW,292,20.7,20.7,72,0.00,CLR,,0.03,0.0,WeatherDisplay:10.37,2013-03-24 10:51:00,
2013-03-24 05:56:00,40.5,32.1,30.01,NW,315,12.7,12.7,72,0.00,CLR,,0.03,0.0,WeatherDisplay:10.37,2013-03-24 10:56:00,
2013-03-24 06:01:00,40.5,32.1,30.01,NW,315,6.9,7.2,72,0.00,CLR,,0.03,0.0,WeatherDisplay:10.37,2013-03-24 11:01:00,
2013-03-24 06:06:00,40.5,32.1,30.01,WNW,292,4.6,7.0,72,0.00,CLR,,0.03,0.0,WeatherDisplay:10.37,2013-03-24 11:06:00,
2013-03-24 06:12:00,40.5,32.1,30.01,WNW,292,4.6,7.0,72,0.00,CLR,,0.03,0.0,WeatherDisplay:10.37,2013-03-24 11:12:00,
2013-03-24 06:17:00,40.5,31.4,30.01,NW,315,15.0,15.0,70,0.00,CLR,,0.03,0.0,WeatherDisplay:10.37,2013-03-24 11:17:00,
2013-03-24 06:22:00,40.5,31.4,30.01,WNW,292,12.7,12.7,70,0.00,CLR,,0.03,0.0,WeatherDisplay:10.37,2013-03-24 11:22:00,
2013-03-24 06:27:00,40.5,31.4,30.01,West,270,12.9,12.9,70,0.00,CLR,,0.03,0.0,WeatherDisplay:10.37,2013-03-24 11:27:00,
2013-03-24 06:32:00,40.5,31.1,30.02,NNW,338,16.1,16.1,69,0.00,CLR,,0.03,0.0,WeatherDisplay:10.37,2013-03-24 11:32:00,
2013-03-24 06:38:00,40.3,30.6,30.02,West,270,12.7,12.7,68,0.00,CLR,,0.03,0.0,WeatherDisplay:10.37,2013-03-24 11:38:00,
2013-03-24 06:43:00,40.1,30.0,30.02,North,0,11.5,11.5,67,0.00,CLR,,0.03,0.0,WeatherDisplay:10.37,2013-03-24 11:43:00,
2013-03-24 06:48:00,39.9,29.8,30.02,NNW,338,4.6,6.8,67,0.00,CLR,,0.03,0.0,WeatherDisplay:10.37,2013-03-24 11:48:00,
2013-03-24 06:53:00,39.9,29.8,30.03,NW,315,12.7,12.7,67,0.00,CLR,,0.03,0.0,WeatherDisplay:10.37,2013-03-24 11:53:00,
2013-03-24 06:58:00,39.9,29.8,30.03,NW,315,5.8,5.8,67,0.00,CLR,,0.03,0.0,WeatherDisplay:10.37,2013-03-24 11:58:00,
2013-03-24 07:04:00,39.9,29.8,30.03,NW,315,16.1,16.1,67,0.00,OVC,,0.03,0.0,WeatherDisplay:10.37,2013-03-24 12:04:00,
2013-03-24 07:09:00,39.9,29.8,30.05,West,270,10.4,10.4,67,0.00,OVC,,0.03,0.0,WeatherDisplay:10.37,2013-03-24 12:09:00,
2013-03-24 07:14:00,40.1,30.0,30.05,NW,315,8.1,8.1,67,0.00,OVC,,0.03,0.0,WeatherDisplay:10.37,2013-03-24 12:14:00,
2013-03-24 07:19:00,39.9,29.8,30.05,WNW,292,8.1,8.1,67,0.00,OVC,,0.03,0.0,WeatherDisplay:10.37,2013-03-24 12:19:00,
2013-03-24 07:24:00,40.1,30.4,30.05,West,270,3.5,5.9,68,0.00,OVC,,0.03,0.0,WeatherDisplay:10.37,2013-03-24 12:24:00,
2013-03-24 07:29:00,40.1,30.4,30.07,West,270,11.5,11.5,68,0.00,OVC,,0.03,0.0,WeatherDisplay:10.37,2013-03-24 12:29:00,
2013-03-24 07:34:00,40.1,30.4,30.07,WNW,292,4.6,5.2,68,0.00,OVC,,0.03,0.0,WeatherDisplay:10.37,2013-03-24 12:34:00,
2013-03-24 07:39:00,40.1,30.4,30.07,NW,315,9.2,9.2,68,0.00,OVC,,0.03,0.0,WeatherDisplay:10.37,2013-03-24 12:39:00,
2013-03-24 07:44:00,40.5,30.7,30.07,NW,315,6.9,6.9,68,0.00,OVC,,0.03,0.0,WeatherDisplay:10.37,2013-03-24 12:44:00,
2013-03-24 07:50:00,40.5,30.7,30.07,NNW,338,9.2,9.2,68,0.00,OVC,,0.03,0.0,WeatherDisplay:10.37,2013-03-24 12:50:00,
2013-03-24 07:55:00,40.1,30.4,30.07,NW,315,9.2,9.2,68,0.00,OVC,,0.03,0.0,WeatherDisplay:10.37,2013-03-24 12:55:00,
2013-03-24 08:00:00,40.1,30.4,30.07,NW,315,7.6,7.6,68,0.00,OVC,,0.03,0.0,WeatherDisplay:10.37,2013-03-24 13:00:00,
2013-03-24 08:05:00,40.1,30.4,30.07,NW,315,9.2,9.2,68,0.00,OVC,,0.03,0.0,WeatherDisplay:10.37,2013-03-24 13:05:00,
2013-03-24 08:10:00,40.1,30.4,30.09,West,270,12.4,12.4,68,0.00,OVC,,0.03,0.0,WeatherDisplay:10.37,2013-03-24 13:10:00,
2013-03-24 08:15:00,40.1,30.0,30.09,WNW,292,12.7,12.7,67,0.00,OVC,,0.03,0.0,WeatherDisplay:10.37,2013-03-24 13:15:00,
2013-03-24 08:22:00,40.1,30.0,30.09,WSW,248,15.0,15.0,67,0.00,OVC,,0.03,0.0,WeatherDisplay:10.37,2013-03-24 13:22:00,
2013-03-24 08:27:00,40.1,29.6,30.09,NNW,338,11.5,11.5,66,0.00,OVC,,0.03,0.0,WeatherDisplay:10.37,2013-03-24 13:27:00,
2013-03-24 08:32:00,40.1,29.3,30.10,NW,315,11.5,11.5,65,0.00,OVC,,0.03,0.0,WeatherDisplay:10.37,2013-03-24 13:32:00,
2013-03-24 08:37:00,40.5,29.6,30.10,North,0,8.1,8.1,65,0.00,OVC,,0.03,0.0,WeatherDisplay:10.37,2013-03-24 13:37:00,
2013-03-24 08:43:00,40.1,29.3,30.10,NNW,338,15.0,15.0,65,0.00,OVC,,0.03,50.0,WeatherDisplay:10.37,2013-03-24 13:43:00,
2013-03-24 08:48:00,39.9,28.7,30.10,West,270,11.5,11.5,64,0.00,OVC,,0.03,90.0,WeatherDisplay:10.37,2013-03-24 13:48:00,
2013-03-24 08:53:00,39.9,29.1,30.12,NW,315,12.7,12.7,65,0.00,OVC,,0.03,90.0,WeatherDisplay:10.37,2013-03-24 13:53:00,
2013-03-24 08:58:00,39.9,29.1,30.12,WSW,248,5.8,5.8,65,0.00,OVC,,0.03,110.0,WeatherDisplay:10.37,2013-03-24 13:58:00,
2013-03-24 09:03:00,39.9,29.1,30.12,WNW,292,20.7,20.7,65,0.00,OVC,,0.03,150.0,WeatherDisplay:10.37,2013-03-24 14:03:00,
2013-03-24 09:08:00,39.9,29.5,30.14,NNW,338,10.4,10.4,66,0.00,OVC,,0.03,180.0,WeatherDisplay:10.37,2013-03-24 14:08:00,
2013-03-24 09:14:00,39.9,29.1,30.14,NNW,338,6.1,6.3,65,0.00,OVC,,0.03,200.0,WeatherDisplay:10.37,2013-03-24 14:14:00,
2013-03-24 09:19:00,40.1,29.6,30.14,NW,315,10.4,10.4,66,0.00,OVC,,0.03,250.0,WeatherDisplay:10.37,2013-03-24 14:19:00,
2013-03-24 09:24:00,39.9,29.1,30.14,NW,315,10.4,10.4,65,0.00,OVC,,0.03,270.0,WeatherDisplay:10.37,2013-03-24 14:24:00,
2013-03-24 09:29:00,39.9,29.1,30.14,West,270,9.2,9.2,65,0.00,OVC,,0.03,270.0,WeatherDisplay:10.37,2013-03-24 14:29:00,
2013-03-24 09:34:00,40.1,29.3,30.14,NW,315,7.2,7.2,65,0.00,OVC,,0.03,260.0,WeatherDisplay:10.37,2013-03-24 14:34:00,
2013-03-24 09:39:00,40.1,29.3,30.14,NW,315,16.7,16.7,65,0.00,OVC,,0.03,260.0,WeatherDisplay:10.37,2013-03-24 14:39:00,
2013-03-24 09:44:00,39.9,28.7,30.14,WNW,292,10.5,10.5,64,0.00,OVC,,0.03,220.0,WeatherDisplay:10.37,2013-03-24 14:44:00,
2013-03-24 09:50:00,39.9,28.7,30.15,West,270,14.4,14.4,64,0.00,OVC,,0.03,220.0,WeatherDisplay:10.37,2013-03-24 14:50:00,
2013-03-24 09:55:00,39.9,28.7,30.15,NNW,338,8.1,8.1,64,0.00,OVC,,0.03,150.0,WeatherDisplay:10.37,2013-03-24 14:55:00,
2013-03-24 10:00:00,40.1,28.9,30.15,NW,315,9.2,9.2,64,0.00,OVC,,0.03,150.0,WeatherDisplay:10.37,2013-03-24 15:00:00,
2013-03-24 10:05:00,40.5,29.2,30.15,NW,315,18.5,18.5,64,0.00,OVC,,0.03,170.0,WeatherDisplay:10.37,2013-03-24 15:05:00,
2013-03-24 10:10:00,40.3,28.3,30.15,NW,315,15.0,15.0,62,0.00,OVC,,0.03,160.0,WeatherDisplay:10.37,2013-03-24 15:10:00,
2013-03-24 10:15:00,40.6,29.0,30.15,West,270,9.2,9.2,63,0.00,OVC,,0.03,170.0,WeatherDisplay:10.37,2013-03-24 15:15:00,
2013-03-24 10:20:00,40.8,29.2,30.15,NNW,338,8.9,8.9,63,0.00,OVC,,0.03,200.0,WeatherDisplay:10.37,2013-03-24 15:20:00,
2013-03-24 10:25:00,41.4,29.7,30.15,NNW,338,9.2,9.2,63,0.00,OVC,,0.03,230.0,WeatherDisplay:10.37,2013-03-24 15:25:00,
2013-03-24 10:30:00,41.5,29.1,30.15,NW,315,17.3,17.3,61,0.00,OVC,,0.03,140.0,WeatherDisplay:10.37,2013-03-24 15:30:00,
2013-03-24 10:35:00,41.5,28.7,30.15,NNW,338,12.7,12.7,60,0.00,OVC,,0.03,160.0,WeatherDisplay:10.37,2013-03-24 15:35:00,
2013-03-24 10:41:00,41.9,28.6,30.15,NW,315,9.2,9.2,59,0.00,OVC,,0.03,180.0,WeatherDisplay:10.37,2013-03-24 15:41:00,
2013-03-24 10:46:00,42.3,28.5,30.15,NW,315,10.5,10.5,58,0.00,OVC,,0.03,210.0,WeatherDisplay:10.37,2013-03-24 15:46:00,
2013-03-24 10:52:00,42.3,28.1,30.16,NNW,338,9.2,9.2,57,0.00,OVC,,0.03,220.0,WeatherDisplay:10.37,2013-03-24 15:52:00,
2013-03-24 10:57:00,43.0,28.8,30.16,NW,315,9.2,9.2,57,0.00,OVC,,0.03,220.0,WeatherDisplay:10.37,2013-03-24 15:57:00,
2013-03-24 11:02:00,43.3,28.7,30.16,NW,315,12.7,12.7,56,0.00,OVC,,0.03,210.0,WeatherDisplay:10.37,2013-03-24 16:02:00,
2013-03-24 11:07:00,43.3,29.1,30.16,West,270,11.5,11.5,57,0.00,OVC,,0.03,200.0,WeatherDisplay:10.37,2013-03-24 16:07:00,
2013-03-24 11:12:00,43.5,28.4,30.16,West,270,6.9,8.1,55,0.00,OVC,,0.03,140.0,WeatherDisplay:10.37,2013-03-24 16:12:00,
2013-03-24 11:17:00,43.5,28.4,30.16,NNW,338,10.4,10.4,55,0.00,OVC,,0.03,180.0,WeatherDisplay:10.37,2013-03-24 16:17:00,
2013-03-24 11:23:00,43.7,28.1,30.16,NW,315,12.7,12.7,54,0.00,OVC,,0.03,180.0,WeatherDisplay:10.37,2013-03-24 16:23:00,
2013-03-24 11:28:00,43.7,28.1,30.16,West,270,11.5,11.5,54,0.00,OVC,,0.03,150.0,WeatherDisplay:10.37,2013-03-24 16:28:00,
2013-03-24 11:33:00,44.1,28.0,30.17,NW,315,16.1,16.1,53,0.00,OVC,,0.03,170.0,WeatherDisplay:10.37,2013-03-24 16:33:00,
2013-03-24 11:38:00,44.4,28.3,30.17,NW,315,8.1,8.2,53,0.00,OVC,,0.03,170.0,WeatherDisplay:10.37,2013-03-24 16:38:00,
2013-03-24 11:43:00,44.8,29.1,30.17,West,270,19.6,19.6,54,0.00,OVC,,0.03,170.0,WeatherDisplay:10.37,2013-03-24 16:43:00,
2013-03-24 11:48:00,45.0,28.4,30.17,West,270,10.4,10.4,52,0.00,OVC,,0.03,160.0,WeatherDisplay:10.37,2013-03-24 16:48:00,
2013-03-24 11:53:00,45.3,29.2,30.17,West,270,16.1,16.1,53,0.00,OVC,,0.03,150.0,WeatherDisplay:10.37,2013-03-24 16:53:00,
2013-03-24 11:58:00,45.7,29.5,30.17,NW,315,13.8,13.8,53,0.00,OVC,,0.03,130.0,WeatherDisplay:10.37,2013-03-24 16:58:00,
2013-03-24 12:03:00,45.9,29.2,30.17,NW,315,8.1,8.1,52,0.00,OVC,,0.03,120.0,WeatherDisplay:10.37,2013-03-24 17:03:00,
2013-03-24 12:09:00,45.9,29.2,30.17,NW,315,6.9,7.4,52,0.00,OVC,,0.03,120.0,WeatherDisplay:10.37,2013-03-24 17:09:00,
2013-03-24 12:14:00,46.2,29.1,30.17,WNW,292,7.2,7.6,51,0.00,OVC,,0.03,120.0,WeatherDisplay:10.37,2013-03-24 17:14:00,
2013-03-24 12:19:00,46.6,28.9,30.17,NW,315,12.7,12.7,50,0.00,OVC,,0.03,100.0,WeatherDisplay:10.37,2013-03-24 17:19:00,
2013-03-24 12:24:00,46.9,29.2,30.17,NW,315,6.9,7.5,50,0.00,OVC,,0.03,100.0,WeatherDisplay:10.37,2013-03-24 17:24:00,
2013-03-24 12:29:00,46.9,29.2,30.16,NW,315,10.4,10.4,50,0.00,OVC,,0.03,100.0,WeatherDisplay:10.37,2013-03-24 17:29:00,
2013-03-24 12:35:00,46.9,28.8,30.16,NE,45,12.7,12.7,49,0.00,CLR,,0.03,100.0,WeatherDisplay:10.37,2013-03-24 17:35:00,
2013-03-24 12:40:00,47.3,28.6,30.16,North,0,9.5,9.5,48,0.00,CLR,,0.03,100.0,WeatherDisplay:10.37,2013-03-24 17:40:00,
2013-03-24 12:45:00,47.3,28.6,30.16,WNW,292,9.2,9.2,48,0.00,CLR,,0.03,100.0,WeatherDisplay:10.37,2013-03-24 17:45:00,
2013-03-24 12:50:00,48.0,29.2,30.15,NW,315,11.2,11.2,48,0.00,CLR,,0.03,100.0,WeatherDisplay:10.37,2013-03-24 17:50:00,
2013-03-24 12:55:00,48.0,29.2,30.15,NW,315,11.5,11.5,48,0.00,CLR,,0.03,100.0,WeatherDisplay:10.37,2013-03-24 17:55:00,
2013-03-24 13:01:00,48.2,28.9,30.15,WNW,292,6.9,7.1,47,0.00,CLR,,0.03,100.0,WeatherDisplay:10.37,2013-03-24 18:01:00,
2013-03-24 13:06:00,48.4,28.5,30.15,West,270,13.8,13.8,46,0.00,CLR,,0.03,100.0,WeatherDisplay:10.37,2013-03-24 18:06:00,
2013-03-24 13:11:00,48.6,29.2,30.14,NNW,338,9.2,9.2,47,0.00,FEW,,0.03,100.0,WeatherDisplay:10.37,2013-03-24 18:11:00,
2013-03-24 13:16:00,49.1,29.2,30.14,West,270,4.6,6.6,46,0.00,FEW,,0.03,100.0,WeatherDisplay:10.37,2013-03-24 18:16:00,
2013-03-24 13:21:00,49.1,29.2,30.14,NW,315,13.8,13.8,46,0.00,SCT,,0.03,90.0,WeatherDisplay:10.37,2013-03-24 18:21:00,
2013-03-24 13:26:00,48.9,28.5,30.14,West,270,4.6,9.3,45,0.00,BKN,,0.03,70.0,WeatherDisplay:10.37,2013-03-24 18:26:00,
2013-03-24 13:31:00,49.1,29.2,30.15,NNW,338,17.3,17.3,46,0.00,BKN,,0.03,90.0,WeatherDisplay:10.37,2013-03-24 18:31:00,
2013-03-24 13:37:00,49.5,28.4,30.15,NW,315,11.5,11.5,44,0.00,BKN,,0.03,100.0,WeatherDisplay:10.37,2013-03-24 18:37:00,
2013-03-24 13:42:00,49.3,28.3,30.15,WNW,292,9.2,9.2,44,0.00,BKN,,0.03,100.0,WeatherDisplay:10.37,2013-03-24 18:42:00,
2013-03-24 13:47:00,49.6,29.1,30.15,West,270,12.7,12.7,45,0.00,BKN,,0.03,100.0,WeatherDisplay:10.37,2013-03-24 18:47:00,
2013-03-24 13:53:00,50.0,29.5,30.15,NW,315,10.4,10.4,45,0.00,BKN,,0.03,100.0,WeatherDisplay:10.37,2013-03-24 18:53:00,
2013-03-24 13:58:00,50.5,30.0,30.15,WNW,292,11.5,11.5,45,0.00,OVC,,0.03,100.0,WeatherDisplay:10.37,2013-03-24 18:58:00,
2013-03-24 14:03:00,50.9,30.3,30.15,NW,315,11.5,11.5,45,0.00,OVC,,0.03,100.0,WeatherDisplay:10.37,2013-03-24 19:03:00,
2013-03-24 14:08:00,50.7,29.0,30.13,NNW,338,6.9,6.9,43,0.00,OVC,,0.03,100.0,WeatherDisplay:10.37,2013-03-24 19:08:00,
2013-03-24 14:14:00,50.7,29.0,30.13,NW,315,6.9,6.9,43,0.00,OVC,,0.03,100.0,WeatherDisplay:10.37,2013-03-24 19:14:00,
2013-03-24 14:19:00,51.3,29.5,30.13,NNW,338,11.5,11.5,43,0.00,OVC,,0.03,100.0,WeatherDisplay:10.37,2013-03-24 19:19:00,
2013-03-24 14:24:00,51.3,30.1,30.13,West,270,9.3,9.3,44,0.00,OVC,,0.03,100.0,WeatherDisplay:10.37,2013-03-24 19:24:00,
2013-03-24 14:29:00,51.4,29.7,30.13,NNW,338,11.5,11.5,43,0.00,OVC,,0.03,100.0,WeatherDisplay:10.37,2013-03-24 19:29:00,
2013-03-24 14:34:00,51.6,29.8,30.13,NW,315,11.5,11.5,43,0.00,OVC,,0.03,100.0,WeatherDisplay:10.37,2013-03-24 19:34:00,
2013-03-24 14:39:00,51.4,29.1,30.13,West,270,13.8,13.8,42,0.00,OVC,,0.03,100.0,WeatherDisplay:10.37,2013-03-24 19:39:00,
2013-03-24 14:45:00,51.8,29.4,30.13,West,270,10.4,10.4,42,0.00,OVC,,0.03,100.0,WeatherDisplay:10.37,2013-03-24 19:45:00,
2013-03-24 14:50:00,52.3,29.9,30.12,NW,315,8.1,8.1,42,0.00,OVC,,0.03,100.0,WeatherDisplay:10.37,2013-03-24 19:50:00,
2013-03-24 14:55:00,52.2,29.7,30.12,NW,315,16.1,16.1,42,0.00,OVC,,0.03,80.0,WeatherDisplay:10.37,2013-03-24 19:55:00,
2013-03-24 15:00:00,52.2,29.7,30.12,North,0,4.6,7.5,42,0.00,OVC,,0.03,80.0,WeatherDisplay:10.37,2013-03-24 20:00:00,
2013-03-24 15:05:00,52.7,29.6,30.12,NNW,338,11.5,11.5,41,0.00,OVC,,0.03,100.0,WeatherDisplay:10.37,2013-03-24 20:05:00,
2013-03-24 15:10:00,52.5,28.9,30.12,NW,315,5.8,7.0,40,0.00,OVC,,0.03,100.0,WeatherDisplay:10.37,2013-03-24 20:10:00,
2013-03-24 15:16:00,52.7,29.0,30.12,West,270,4.6,6.8,40,0.00,OVC,,0.03,100.0,WeatherDisplay:10.37,2013-03-24 20:16:00,
2013-03-24 15:21:00,52.9,29.8,30.12,West,270,10.4,10.4,41,0.00,OVC,,0.03,100.0,WeatherDisplay:10.37,2013-03-24 20:21:00,
2013-03-24 15:27:00,53.4,29.7,30.12,NW,315,9.2,9.2,40,0.00,OVC,,0.03,100.0,WeatherDisplay:10.37,2013-03-24 20:27:00,
2013-03-24 15:32:00,53.4,29.1,30.12,NW,315,6.9,6.9,39,0.00,OVC,,0.03,100.0,WeatherDisplay:10.37,2013-03-24 20:32:00,
2013-03-24 15:37:00,53.4,29.7,30.12,NNW,338,6.9,6.9,40,0.00,OVC,,0.03,100.0,WeatherDisplay:10.37,2013-03-24 20:37:00,
2013-03-24 15:42:00,53.6,29.2,30.12,NNW,338,6.2,6.2,39,0.00,OVC,,0.03,100.0,WeatherDisplay:10.37,2013-03-24 20:42:00,
2013-03-24 15:47:00,53.6,28.6,30.12,NW,315,12.7,12.7,38,0.00,OVC,,0.03,100.0,WeatherDisplay:10.37,2013-03-24 20:47:00,
2013-03-24 15:52:00,53.6,28.6,30.11,West,270,6.9,6.9,38,0.00,OVC,,0.03,100.0,WeatherDisplay:10.37,2013-03-24 20:52:00,
2013-03-24 15:57:00,53.8,28.7,30.11,NW,315,10.4,10.4,38,0.00,OVC,,0.03,100.0,WeatherDisplay:10.37,2013-03-24 20:57:00,
2013-03-24 16:02:00,53.8,28.7,30.11,WNW,292,11.5,11.5,38,0.00,OVC,,0.03,100.0,WeatherDisplay:10.37,2013-03-24 21:02:00,
2013-03-24 16:08:00,54.1,29.7,30.11,ENE,68,2.3,6.3,39,0.00,OVC,,0.03,110.0,WeatherDisplay:10.37,2013-03-24 21:08:00,
2013-03-24 16:13:00,54.5,29.4,30.11,NNW,338,10.4,10.4,38,0.00,OVC,,0.03,110.0,WeatherDisplay:10.37,2013-03-24 21:13:00,
2013-03-24 16:18:00,54.3,29.2,30.11,West,270,8.1,8.1,38,0.00,OVC,,0.03,120.0,WeatherDisplay:10.37,2013-03-24 21:18:00,
2013-03-24 16:23:00,54.1,29.1,30.11,NW,315,10.4,10.4,38,0.00,OVC,,0.03,80.0,WeatherDisplay:10.37,2013-03-24 21:23:00,
2013-03-24 16:28:00,54.0,28.3,30.10,NW,315,7.8,7.8,37,0.00,OVC,,0.03,100.0,WeatherDisplay:10.37,2013-03-24 21:28:00,
2013-03-24 16:33:00,54.5,28.7,30.10,NNW,338,7.1,7.1,37,0.00,OVC,,0.03,150.0,WeatherDisplay:10.37,2013-03-24 21:33:00,
2013-03-24 16:39:00,54.5,28.7,30.10,NNE,22,5.8,5.8,37,0.00,OVC,,0.03,160.0,WeatherDisplay:10.37,2013-03-24 21:39:00,
2013-03-24 16:44:00,54.9,28.4,30.10,NW,315,10.4,10.4,36,0.00,OVC,,0.03,170.0,WeatherDisplay:10.37,2013-03-24 21:44:00,
2013-03-24 16:49:00,54.5,28.1,30.09,NW,315,12.7,12.7,36,0.00,OVC,,0.03,170.0,WeatherDisplay:10.37,2013-03-24 21:49:00,
2013-03-24 16:54:00,54.9,28.4,30.09,NNW,338,6.9,6.9,36,0.00,OVC,,0.03,150.0,WeatherDisplay:10.37,2013-03-24 21:54:00,
2013-03-24 16:59:00,55.0,28.5,30.09,NW,315,4.6,5.8,36,0.00,OVC,,0.03,90.0,WeatherDisplay:10.37,2013-03-24 21:59:00,
2013-03-24 17:04:00,55.4,28.9,30.09,NNW,338,4.6,5.1,36,0.00,OVC,,0.03,150.0,WeatherDisplay:10.37,2013-03-24 22:04:00,
2013-03-24 17:10:00,55.4,28.2,30.08,NNW,338,5.8,5.8,35,0.00,OVC,,0.03,150.0,WeatherDisplay:10.37,2013-03-24 22:10:00,
2013-03-24 17:15:00,55.6,28.3,30.08,NW,315,5.8,5.8,35,0.00,OVC,,0.03,160.0,WeatherDisplay:10.37,2013-03-24 22:15:00,
2013-03-24 17:20:00,55.9,28.7,30.08,West,270,4.6,4.6,35,0.00,OVC,,0.03,160.0,WeatherDisplay:10.37,2013-03-24 22:20:00,
2013-03-24 17:25:00,55.8,27.1,30.08,NW,315,12.7,12.7,33,0.00,OVC,,0.03,160.0,WeatherDisplay:10.37,2013-03-24 22:25:00,
2013-03-24 17:30:00,56.1,28.1,30.08,NW,315,9.2,9.2,34,0.00,OVC,,0.03,160.0,WeatherDisplay:10.37,2013-03-24 22:30:00,
2013-03-24 17:35:00,56.5,27.7,30.08,NW,315,9.2,9.2,33,0.00,OVC,,0.03,150.0,WeatherDisplay:10.37,2013-03-24 22:35:00,
2013-03-24 17:40:00,56.1,26.6,30.08,NW,315,6.9,6.9,32,0.00,OVC,,0.03,150.0,WeatherDisplay:10.37,2013-03-24 22:40:00,
2013-03-24 17:46:00,55.9,27.2,30.08,North,0,9.2,9.2,33,0.00,OVC,,0.03,140.0,WeatherDisplay:10.37,2013-03-24 22:46:00,
2013-03-24 17:51:00,55.8,28.5,30.07,NNE,22,5.8,5.8,35,0.00,OVC,,0.03,120.0,WeatherDisplay:10.37,2013-03-24 22:51:00,
2013-03-24 17:57:00,55.6,27.6,30.07,NW,315,4.9,4.9,34,0.00,OVC,,0.03,110.0,WeatherDisplay:10.37,2013-03-24 22:57:00,
2013-03-24 18:02:00,55.4,26.7,30.07,NNE,22,3.5,5.3,33,0.00,OVC,,0.03,110.0,WeatherDisplay:10.37,2013-03-24 23:02:00,
2013-03-24 18:07:00,55.0,27.1,30.07,North,0,9.5,9.5,34,0.00,OVC,,0.03,90.0,WeatherDisplay:10.37,2013-03-24 23:07:00,
2013-03-24 18:12:00,55.0,26.4,30.08,NW,315,6.9,6.9,33,0.00,OVC,,0.03,70.0,WeatherDisplay:10.37,2013-03-24 23:12:00,
2013-03-24 18:17:00,54.9,26.3,30.08,NW,315,11.7,11.7,33,0.00,OVC,,0.03,40.0,WeatherDisplay:10.37,2013-03-24 23:17:00,
2013-03-24 18:23:00,54.5,26.7,30.08,NW,315,7.2,7.2,34,0.00,OVC,,0.03,30.0,WeatherDisplay:10.37,2013-03-24 23:23:00,
2013-03-24 18:28:00,54.3,26.5,30.08,NW,315,12.0,12.0,34,0.00,OVC,,0.03,30.0,WeatherDisplay:10.37,2013-03-24 23:28:00,
2013-03-24 18:33:00,54.3,27.2,30.09,NNE,22,3.5,5.4,35,0.00,OVC,,0.03,30.0,WeatherDisplay:10.37,2013-03-24 23:33:00,
2013-03-24 18:38:00,54.3,26.5,30.09,NNW,338,6.9,6.9,34,0.00,OVC,,0.03,20.0,WeatherDisplay:10.37,2013-03-24 23:38:00,
2013-03-24 18:43:00,54.3,26.5,30.09,NW,315,5.8,5.8,34,0.00,OVC,,0.03,20.0,WeatherDisplay:10.37,2013-03-24 23:43:00,
2013-03-24 18:49:00,54.3,26.5,30.09,NW,315,8.1,8.1,34,0.00,OVC,,0.03,10.0,WeatherDisplay:10.37,2013-03-24 23:49:00,
2013-03-24 18:54:00,54.1,25.6,30.09,NW,315,8.3,8.3,33,0.00,OVC,,0.03,10.0,WeatherDisplay:10.37,2013-03-24 23:54:00,
2013-03-24 18:59:00,53.8,26.0,30.09,WNW,292,6.9,6.9,34,0.00,OVC,,0.03,10.0,WeatherDisplay:10.37,2013-03-24 23:59:00,
2013-03-24 19:04:00,53.6,25.2,30.09,NW,315,6.9,6.9,33,0.00,OVC,,0.03,0.0,WeatherDisplay:10.37,2013-03-25 00:04:00,
2013-03-24 19:10:00,53.4,25.0,30.10,West,270,11.5,11.5,33,0.00,OVC,,0.03,0.0,WeatherDisplay:10.37,2013-03-25 00:10:00,
2013-03-24 19:15:00,52.9,24.5,30.10,West,270,10.4,10.4,33,0.00,OVC,,0.03,0.0,WeatherDisplay:10.37,2013-03-25 00:15:00,
2013-03-24 19:20:00,52.9,25.2,30.10,NW,315,8.1,8.1,34,0.00,OVC,,0.03,0.0,WeatherDisplay:10.37,2013-03-25 00:20:00,
2013-03-24 19:26:00,52.9,25.2,30.10,NNW,338,8.1,8.1,34,0.00,OVC,,0.03,0.0,WeatherDisplay:10.37,2013-03-25 00:26:00,
2013-03-24 19:31:00,52.7,25.1,30.10,NNW,338,5.8,5.8,34,0.00,OVC,,0.03,0.0,WeatherDisplay:10.37,2013-03-25 00:31:00,
2013-03-24 19:36:00,52.3,24.8,30.10,WNW,292,9.2,9.2,34,0.00,OVC,,0.03,0.0,WeatherDisplay:10.37,2013-03-25 00:36:00,
2013-03-24 19:41:00,52.2,24.6,30.10,WNW,292,9.2,9.2,34,0.00,OVC,,0.03,0.0,WeatherDisplay:10.37,2013-03-25 00:41:00,
2013-03-24 19:47:00,52.0,24.4,30.10,NNW,338,2.3,3.1,34,0.00,OVC,,0.03,0.0,WeatherDisplay:10.37,2013-03-25 00:47:00,
2013-03-24 19:52:00,51.6,24.8,30.11,NNW,338,2.3,3.1,35,0.00,OVC,,0.03,0.0,WeatherDisplay:10.37,2013-03-25 00:52:00,
2013-03-24 19:57:00,51.6,24.8,30.11,NNW,338,2.3,3.1,35,0.00,OVC,,0.03,0.0,WeatherDisplay:10.37,2013-03-25 00:57:00,
2013-03-24 20:02:00,51.3,24.5,30.11,NNW,338,0.0,0.0,35,0.00,CLR,,0.03,0.0,WeatherDisplay:10.37,2013-03-25 01:02:00,
2013-03-24 20:07:00,51.3,24.5,30.11,NNW,338,0.0,0.0,35,0.00,CLR,,0.03,0.0,WeatherDisplay:10.37,2013-03-25 01:07:00,
2013-03-24 20:13:00,50.9,24.9,30.11,NNW,338,0.0,0.0,36,0.00,CLR,,0.03,0.0,WeatherDisplay:10.37,2013-03-25 01:13:00,
2013-03-24 20:18:00,50.7,24.7,30.11,NNW,338,0.0,0.0,36,0.00,CLR,,0.03,0.0,WeatherDisplay:10.37,2013-03-25 01:18:00,
2013-03-24 20:23:00,50.5,23.9,30.11,NNW,338,0.0,0.0,35,0.00,CLR,,0.03,0.0,WeatherDisplay:10.37,2013-03-25 01:23:00,
2013-03-24 20:28:00,50.5,23.9,30.11,NNW,338,0.0,0.0,35,0.00,CLR,,0.03,0.0,WeatherDisplay:10.37,2013-03-25 01:28:00,
2013-03-24 20:34:00,50.2,23.5,30.11,NNW,338,0.0,0.0,35,0.00,CLR,,0.03,0.0,WeatherDisplay:10.37,2013-03-25 01:34:00,
2013-03-24 20:39:00,50.0,23.4,30.11,NNW,338,0.0,0.0,35,0.00,CLR,,0.03,0.0,WeatherDisplay:10.37,2013-03-25 01:39:00,
2013-03-24 20:44:00,50.0,23.4,30.11,NNW,338,0.0,0.0,35,0.00,CLR,,0.03,0.0,WeatherDisplay:10.37,2013-03-25 01:44:00,
2013-03-24 20:49:00,49.8,23.2,30.13,NNW,338,0.0,0.0,35,0.00,CLR,,0.03,0.0,WeatherDisplay:10.37,2013-03-25 01:49:00,
2013-03-24 20:54:00,49.8,23.9,30.13,NNW,338,0.0,0.0,36,0.00,CLR,,0.03,0.0,WeatherDisplay:10.37,2013-03-25 01:54:00,
2013-03-24 20:59:00,49.6,23.7,30.13,NNW,338,0.0,0.0,36,0.00,CLR,,0.03,0.0,WeatherDisplay:10.37,2013-03-25 01:59:00,
2013-03-24 21:05:00,49.3,23.4,30.13,NNW,338,0.0,0.0,36,0.00,CLR,,0.03,0.0,WeatherDisplay:10.37,2013-03-25 02:05:00,
2013-03-24 21:10:00,49.1,23.3,30.14,NNW,338,0.0,0.0,36,0.00,CLR,,0.03,0.0,WeatherDisplay:10.37,2013-03-25 02:10:00,
2013-03-24 21:15:00,49.1,23.9,30.14,NNW,338,0.0,0.0,37,0.00,CLR,,0.03,0.0,WeatherDisplay:10.37,2013-03-25 02:15:00,
2013-03-24 21:20:00,48.9,23.1,30.14,NNW,338,0.0,0.0,36,0.00,CLR,,0.03,0.0,WeatherDisplay:10.37,2013-03-25 02:20:00,
2013-03-24 21:25:00,48.7,22.3,30.14,NNW,338,0.0,0.0,35,0.00,CLR,,0.03,0.0,WeatherDisplay:10.37,2013-03-25 02:25:00,
2013-03-24 21:30:00,48.6,22.1,30.14,NNW,338,0.0,0.0,35,0.00,CLR,,0.03,0.0,WeatherDisplay:10.37,2013-03-25 02:30:00,
2013-03-24 21:36:00,48.4,22.0,30.14,NNW,338,0.0,0.0,35,0.00,CLR,,0.03,0.0,WeatherDisplay:10.37,2013-03-25 02:36:00,
2013-03-24 21:41:00,48.4,21.3,30.14,NNW,338,0.0,0.0,34,0.00,CLR,,0.03,0.0,WeatherDisplay:10.37,2013-03-25 02:41:00,
2013-03-24 21:47:00,48.0,21.6,30.14,NNW,338,0.0,0.0,35,0.00,CLR,,0.03,0.0,WeatherDisplay:10.37,2013-03-25 02:47:00,
2013-03-24 21:52:00,47.8,20.8,30.15,North,0,6.9,6.9,34,0.00,CLR,,0.03,0.0,WeatherDisplay:10.37,2013-03-25 02:52:00,
2013-03-24 21:57:00,47.8,20.8,30.15,NNE,22,9.2,9.2,34,0.00,CLR,,0.03,0.0,WeatherDisplay:10.37,2013-03-25 02:57:00,
2013-03-24 22:02:00,47.7,21.3,30.15,NNE,22,2.3,2.6,35,0.00,CLR,,0.03,0.0,WeatherDisplay:10.37,2013-03-25 03:02:00,
2013-03-24 22:07:00,47.7,21.3,30.15,NE,45,3.5,3.5,35,0.00,CLR,,0.03,0.0,WeatherDisplay:10.37,2013-03-25 03:07:00,
2013-03-24 22:12:00,47.3,21.0,30.16,NW,315,4.6,4.6,35,0.00,CLR,,0.03,0.0,WeatherDisplay:10.37,2013-03-25 03:12:00,
2013-03-24 22:18:00,47.1,20.8,30.16,NW,315,6.1,6.1,35,0.00,CLR,,0.03,0.0,WeatherDisplay:10.37,2013-03-25 03:18:00,
2013-03-24 22:23:00,47.1,21.5,30.16,NW,315,5.8,5.8,36,0.00,CLR,,0.03,0.0,WeatherDisplay:10.37,2013-03-25 03:23:00,
2013-03-24 22:28:00,46.9,21.3,30.17,NW,315,3.5,3.5,36,0.00,CLR,,0.03,0.0,WeatherDisplay:10.37,2013-03-25 03:28:00,
2013-03-24 22:33:00,46.8,21.2,30.17,WNW,292,2.3,2.3,36,0.00,CLR,,0.03,0.0,WeatherDisplay:10.37,2013-03-25 03:33:00,
2013-03-24 22:39:00,46.6,21.7,30.17,NNW,338,3.6,3.6,37,0.00,CLR,,0.03,0.0,WeatherDisplay:10.37,2013-03-25 03:39:00,
2013-03-24 22:44:00,46.4,21.5,30.17,NNW,338,5.8,5.8,37,0.00,CLR,,0.03,0.0,WeatherDisplay:10.37,2013-03-25 03:44:00,
2013-03-24 22:49:00,46.4,21.5,30.18,NNW,338,4.6,4.6,37,0.00,CLR,,0.03,0.0,WeatherDisplay:10.37,2013-03-25 03:49:00,
2013-03-24 22:54:00,46.0,21.2,30.18,NW,315,3.5,3.5,37,0.00,CLR,,0.03,0.0,WeatherDisplay:10.37,2013-03-25 03:54:00,
2013-03-24 22:59:00,46.2,21.3,30.18,NNE,22,5.8,5.8,37,0.00,CLR,,0.03,0.0,WeatherDisplay:10.37,2013-03-25 03:59:00,
2013-03-24 23:00:00,46.2,21.3,30.18,NNE,22,5.8,5.8,37,0.00,CLR,,0.03,0.0,WeatherDisplay:10.37,2013-03-25 04:00:00,
2013-03-24 23:01:00,46.0,21.8,30.18,NNE,22,5.8,5.8,38,0.00,CLR,,0.03,0.0,WeatherDisplay:10.37,2013-03-25 04:01:00,
2013-03-24 23:07:00,45.7,21.5,30.18,NNW,338,2.3,2.5,38,0.00,CLR,,0.03,0.0,WeatherDisplay:10.37,2013-03-25 04:07:00,
2013-03-24 23:12:00,45.7,21.5,30.19,NW,315,1.2,2.3,38,0.00,CLR,,0.03,0.0,WeatherDisplay:10.37,2013-03-25 04:12:00,
2013-03-24 23:17:00,45.5,21.9,30.19,NW,315,4.6,4.6,39,0.00,CLR,,0.03,0.0,WeatherDisplay:10.37,2013-03-25 04:17:00,
2013-03-24 23:23:00,45.5,21.9,30.19,NW,315,4.6,4.6,39,0.00,CLR,,0.03,0.0,WeatherDisplay:10.37,2013-03-25 04:23:00,
2013-03-24 23:28:00,45.1,21.6,30.19,NW,315,4.6,4.6,39,0.00,CLR,,0.03,0.0,WeatherDisplay:10.37,2013-03-25 04:28:00,
2013-03-24 23:33:00,45.1,22.2,30.19,NW,315,4.6,0.0,40,0.00,CLR,,0.03,0.0,WeatherDisplay:10.37,2013-03-25 04:33:00,
2013-03-24 23:38:00,45.0,22.1,30.19,NW,315,0.0,0.0,40,0.00,CLR,,0.03,0.0,WeatherDisplay:10.37,2013-03-25 04:38:00,
2013-03-24 23:44:00,44.8,21.9,30.19,NW,315,0.0,0.0,40,0.00,CLR,,0.03,0.0,WeatherDisplay:10.37,2013-03-25 04:44:00,
2013-03-24 23:49:00,44.8,22.5,30.19,NW,315,0.0,0.0,41,0.00,CLR,,0.03,0.0,WeatherDisplay:10.37,2013-03-25 04:49:00,
2013-03-24 23:54:00,44.4,22.2,30.19,NW,315,0.0,0.0,41,0.00,CLR,,0.03,0.0,WeatherDisplay:10.37,2013-03-25 04:54:00,
2013-03-24 23:59:00,44.4,22.7,30.19,NW,315,0.0,0.0,42,0.00,CLR,,0.03,0.0,WeatherDisplay:10.37,2013-03-25 04:59:00,